sensor_id;sensor_type;location;lat;lon;timestamp;temperature;humidity
11748;DHT22;5931;48.832;9.072;2023-03-23T00:01:15;13.40;99.90
11748;DHT22;5931;48.832;9.072;2023-03-23T00:03:51;13.40;99.90
11748;DHT22;5931;48.832;9.072;2023-03-23T00:06:19;13.50;99.90
11748;DHT22;5931;48.832;9.072;2023-03-23T00:08:49;13.60;99.90
11748;DHT22;5931;48.832;9.072;2023-03-23T00:11:20;13.60;99.90
11748;DHT22;5931;48.832;9.072;2023-03-23T00:13:48;13.70;99.90
11748;DHT22;5931;48.832;9.072;2023-03-23T00:16:21;13.70;99.90
11748;DHT22;5931;48.832;9.072;2023-03-23T00:18:55;13.70;99.90
11748;DHT22;5931;48.832;9.072;2023-03-23T00:21:26;13.70;99.90
11748;DHT22;5931;48.832;9.072;2023-03-23T00:24:04;13.80;99.90
11748;DHT22;5931;48.832;9.072;2023-03-23T00:26:36;13.80;99.90
11748;DHT22;5931;48.832;9.072;2023-03-23T00:29:08;13.80;99.90
11748;DHT22;5931;48.832;9.072;2023-03-23T00:31:35;13.80;99.90
11748;DHT22;5931;48.832;9.072;2023-03-23T00:34:03;13.80;99.90
11748;DHT22;5931;48.832;9.072;2023-03-23T00:36:31;13.80;99.90
11748;DHT22;5931;48.832;9.072;2023-03-23T00:38:58;13.80;99.90
11748;DHT22;5931;48.832;9.072;2023-03-23T00:41:25;13.80;99.90
11748;DHT22;5931;48.832;9.072;2023-03-23T00:43:55;13.80;99.90
11748;DHT22;5931;48.832;9.072;2023-03-23T00:46:22;13.80;99.90
11748;DHT22;5931;48.832;9.072;2023-03-23T00:48:48;13.70;99.90
11748;DHT22;5931;48.832;9.072;2023-03-23T00:51:17;13.70;99.90
11748;DHT22;5931;48.832;9.072;2023-03-23T00:53:44;13.70;99.90
11748;DHT22;5931;48.832;9.072;2023-03-23T00:56:10;13.80;99.90
11748;DHT22;5931;48.832;9.072;2023-03-23T00:58:36;13.80;99.90
11748;DHT22;5931;48.832;9.072;2023-03-23T01:01:02;13.90;99.90
11748;DHT22;5931;48.832;9.072;2023-03-23T01:03:28;13.90;99.90
11748;DHT22;5931;48.832;9.072;2023-03-23T01:05:57;13.90;99.90
11748;DHT22;5931;48.832;9.072;2023-03-23T01:08:23;13.90;99.90
11748;DHT22;5931;48.832;9.072;2023-03-23T01:10:50;14.00;99.90
11748;DHT22;5931;48.832;9.072;2023-03-23T01:13:16;14.00;99.90
11748;DHT22;5931;48.832;9.072;2023-03-23T01:15:42;13.90;99.90
11748;DHT22;5931;48.832;9.072;2023-03-23T01:18:09;13.90;99.90
11748;DHT22;5931;48.832;9.072;2023-03-23T01:20:36;13.90;99.90
11748;DHT22;5931;48.832;9.072;2023-03-23T01:23:02;13.90;99.90
11748;DHT22;5931;48.832;9.072;2023-03-23T01:25:30;14.00;99.90
11748;DHT22;5931;48.832;9.072;2023-03-23T01:27:57;13.90;99.90
11748;DHT22;5931;48.832;9.072;2023-03-23T01:30:24;13.90;99.90
11748;DHT22;5931;48.832;9.072;2023-03-23T01:32:51;13.90;99.90
11748;DHT22;5931;48.832;9.072;2023-03-23T01:35:17;13.80;99.90
11748;DHT22;5931;48.832;9.072;2023-03-23T01:37:43;13.80;99.90
11748;DHT22;5931;48.832;9.072;2023-03-23T01:40:10;13.80;99.90
11748;DHT22;5931;48.832;9.072;2023-03-23T01:42:37;13.80;99.90
11748;DHT22;5931;48.832;9.072;2023-03-23T01:47:50;13.70;99.90
11748;DHT22;5931;48.832;9.072;2023-03-23T01:50:18;13.70;99.90
11748;DHT22;5931;48.832;9.072;2023-03-23T01:52:50;13.50;99.90
11748;DHT22;5931;48.832;9.072;2023-03-23T01:55:17;13.40;99.90
11748;DHT22;5931;48.832;9.072;2023-03-23T01:57:44;13.40;99.90
11748;DHT22;5931;48.832;9.072;2023-03-23T02:00:12;13.30;99.90
11748;DHT22;5931;48.832;9.072;2023-03-23T02:02:48;13.30;99.90
11748;DHT22;5931;48.832;9.072;2023-03-23T02:05:30;13.30;99.90
11748;DHT22;5931;48.832;9.072;2023-03-23T02:07:59;13.10;99.90
11748;DHT22;5931;48.832;9.072;2023-03-23T02:10:31;13.10;99.90
11748;DHT22;5931;48.832;9.072;2023-03-23T02:12:59;13.10;99.90
11748;DHT22;5931;48.832;9.072;2023-03-23T02:15:29;13.10;99.90
11748;DHT22;5931;48.832;9.072;2023-03-23T02:18:19;13.10;99.90
11748;DHT22;5931;48.832;9.072;2023-03-23T02:20:55;13.00;99.90
11748;DHT22;5931;48.832;9.072;2023-03-23T02:26:31;13.00;99.90
11748;DHT22;5931;48.832;9.072;2023-03-23T02:32:04;13.10;99.90
11748;DHT22;5931;48.832;9.072;2023-03-23T02:34:38;13.00;99.90
11748;DHT22;5931;48.832;9.072;2023-03-23T02:37:11;13.00;99.90
11748;DHT22;5931;48.832;9.072;2023-03-23T02:39:49;13.00;99.90
11748;DHT22;5931;48.832;9.072;2023-03-23T02:42:20;13.00;99.90
11748;DHT22;5931;48.832;9.072;2023-03-23T02:44:50;13.10;99.90
11748;DHT22;5931;48.832;9.072;2023-03-23T02:47:22;13.10;99.90
11748;DHT22;5931;48.832;9.072;2023-03-23T02:49:51;13.00;99.90
11748;DHT22;5931;48.832;9.072;2023-03-23T02:52:21;12.90;99.90
11748;DHT22;5931;48.832;9.072;2023-03-23T02:54:50;13.00;99.90
11748;DHT22;5931;48.832;9.072;2023-03-23T02:57:16;13.00;99.90
11748;DHT22;5931;48.832;9.072;2023-03-23T02:59:44;13.10;99.90
11748;DHT22;5931;48.832;9.072;2023-03-23T03:02:32;13.10;99.90
11748;DHT22;5931;48.832;9.072;2023-03-23T03:08:00;13.20;99.90
11748;DHT22;5931;48.832;9.072;2023-03-23T03:16:24;13.20;99.90
11748;DHT22;5931;48.832;9.072;2023-03-23T03:19:09;13.30;99.90
11748;DHT22;5931;48.832;9.072;2023-03-23T03:21:40;13.40;99.90
11748;DHT22;5931;48.832;9.072;2023-03-23T03:24:07;13.50;99.90
11748;DHT22;5931;48.832;9.072;2023-03-23T03:26:40;13.60;99.90
11748;DHT22;5931;48.832;9.072;2023-03-23T03:29:22;13.50;99.90
11748;DHT22;5931;48.832;9.072;2023-03-23T03:31:52;13.50;99.90
11748;DHT22;5931;48.832;9.072;2023-03-23T03:34:20;13.50;99.90
11748;DHT22;5931;48.832;9.072;2023-03-23T03:36:48;13.50;99.90
11748;DHT22;5931;48.832;9.072;2023-03-23T03:39:16;13.50;99.90
11748;DHT22;5931;48.832;9.072;2023-03-23T03:41:43;13.50;99.90
11748;DHT22;5931;48.832;9.072;2023-03-23T03:44:10;13.60;99.90
11748;DHT22;5931;48.832;9.072;2023-03-23T03:46:36;13.50;99.90
11748;DHT22;5931;48.832;9.072;2023-03-23T03:49:05;13.60;99.90
11748;DHT22;5931;48.832;9.072;2023-03-23T03:51:34;13.50;99.90
11748;DHT22;5931;48.832;9.072;2023-03-23T03:54:01;13.40;99.90
11748;DHT22;5931;48.832;9.072;2023-03-23T03:56:27;13.30;99.90
11748;DHT22;5931;48.832;9.072;2023-03-23T03:59:11;13.40;99.90
11748;DHT22;5931;48.832;9.072;2023-03-23T04:01:52;13.40;99.90
11748;DHT22;5931;48.832;9.072;2023-03-23T04:04:20;13.40;99.90
11748;DHT22;5931;48.832;9.072;2023-03-23T04:06:47;13.40;99.90
11748;DHT22;5931;48.832;9.072;2023-03-23T04:09:14;13.40;99.90
11748;DHT22;5931;48.832;9.072;2023-03-23T04:11:40;13.40;99.90
11748;DHT22;5931;48.832;9.072;2023-03-23T04:14:28;13.40;99.90
11748;DHT22;5931;48.832;9.072;2023-03-23T04:16:54;13.40;99.90
11748;DHT22;5931;48.832;9.072;2023-03-23T04:19:23;13.40;99.90
11748;DHT22;5931;48.832;9.072;2023-03-23T04:21:49;13.40;99.90
11748;DHT22;5931;48.832;9.072;2023-03-23T04:24:16;13.40;99.90
11748;DHT22;5931;48.832;9.072;2023-03-23T04:26:42;13.40;99.90
11748;DHT22;5931;48.832;9.072;2023-03-23T04:29:18;13.40;99.90
11748;DHT22;5931;48.832;9.072;2023-03-23T04:32:05;13.50;99.90
11748;DHT22;5931;48.832;9.072;2023-03-23T04:34:37;13.60;99.90
11748;DHT22;5931;48.832;9.072;2023-03-23T04:37:02;13.60;99.90
11748;DHT22;5931;48.832;9.072;2023-03-23T04:39:30;13.70;99.90
11748;DHT22;5931;48.832;9.072;2023-03-23T04:42:00;13.90;99.90
11748;DHT22;5931;48.832;9.072;2023-03-23T04:44:44;14.00;99.90
11748;DHT22;5931;48.832;9.072;2023-03-23T04:47:19;14.00;99.90
11748;DHT22;5931;48.832;9.072;2023-03-23T04:49:52;14.00;99.90
11748;DHT22;5931;48.832;9.072;2023-03-23T04:52:25;14.00;99.90
11748;DHT22;5931;48.832;9.072;2023-03-23T04:54:56;14.10;99.90
11748;DHT22;5931;48.832;9.072;2023-03-23T04:57:24;14.10;99.90
11748;DHT22;5931;48.832;9.072;2023-03-23T05:00:16;14.10;99.90
11748;DHT22;5931;48.832;9.072;2023-03-23T05:02:48;14.00;99.90
11748;DHT22;5931;48.832;9.072;2023-03-23T05:05:19;14.00;99.90
11748;DHT22;5931;48.832;9.072;2023-03-23T05:07:45;14.00;99.90
11748;DHT22;5931;48.832;9.072;2023-03-23T05:10:14;14.00;99.90
11748;DHT22;5931;48.832;9.072;2023-03-23T05:12:41;14.00;99.90
11748;DHT22;5931;48.832;9.072;2023-03-23T05:15:11;14.00;99.90
11748;DHT22;5931;48.832;9.072;2023-03-23T05:17:37;14.00;99.90
11748;DHT22;5931;48.832;9.072;2023-03-23T05:20:16;13.90;99.90
11748;DHT22;5931;48.832;9.072;2023-03-23T05:22:51;13.80;99.90
11748;DHT22;5931;48.832;9.072;2023-03-23T05:25:23;13.70;99.90
11748;DHT22;5931;48.832;9.072;2023-03-23T05:27:57;13.80;99.90
11748;DHT22;5931;48.832;9.072;2023-03-23T05:30:42;13.80;99.90
11748;DHT22;5931;48.832;9.072;2023-03-23T05:33:10;13.80;99.90
11748;DHT22;5931;48.832;9.072;2023-03-23T05:35:49;13.80;99.90
11748;DHT22;5931;48.832;9.072;2023-03-23T05:38:18;13.80;99.90
11748;DHT22;5931;48.832;9.072;2023-03-23T05:40:44;13.90;99.90
11748;DHT22;5931;48.832;9.072;2023-03-23T05:43:14;13.80;99.90
11748;DHT22;5931;48.832;9.072;2023-03-23T05:45:57;13.80;99.90
11748;DHT22;5931;48.832;9.072;2023-03-23T05:48:23;13.80;99.90
11748;DHT22;5931;48.832;9.072;2023-03-23T05:50:49;13.80;99.90
11748;DHT22;5931;48.832;9.072;2023-03-23T05:53:16;13.80;99.90
11748;DHT22;5931;48.832;9.072;2023-03-23T05:55:43;13.80;99.90
11748;DHT22;5931;48.832;9.072;2023-03-23T05:58:19;13.80;99.90
11748;DHT22;5931;48.832;9.072;2023-03-23T06:00:46;13.80;99.90
11748;DHT22;5931;48.832;9.072;2023-03-23T06:03:23;13.80;99.90
11748;DHT22;5931;48.832;9.072;2023-03-23T06:05:56;13.70;99.90
11748;DHT22;5931;48.832;9.072;2023-03-23T06:08:30;13.60;99.90
11748;DHT22;5931;48.832;9.072;2023-03-23T06:10:56;13.50;99.90
11748;DHT22;5931;48.832;9.072;2023-03-23T06:13:23;13.50;99.90
11748;DHT22;5931;48.832;9.072;2023-03-23T06:15:55;13.60;99.90
11748;DHT22;5931;48.832;9.072;2023-03-23T06:18:48;13.50;99.90
11748;DHT22;5931;48.832;9.072;2023-03-23T06:21:33;13.60;99.90
11748;DHT22;5931;48.832;9.072;2023-03-23T06:24:16;13.60;99.90
11748;DHT22;5931;48.832;9.072;2023-03-23T06:26:42;13.60;99.90
11748;DHT22;5931;48.832;9.072;2023-03-23T06:29:14;13.60;99.90
11748;DHT22;5931;48.832;9.072;2023-03-23T06:31:48;13.50;99.90
11748;DHT22;5931;48.832;9.072;2023-03-23T06:34:16;13.50;99.90
11748;DHT22;5931;48.832;9.072;2023-03-23T06:37:00;13.50;99.90
11748;DHT22;5931;48.832;9.072;2023-03-23T06:39:53;13.40;99.90
11748;DHT22;5931;48.832;9.072;2023-03-23T06:42:39;13.50;99.90
11748;DHT22;5931;48.832;9.072;2023-03-23T06:45:23;13.60;99.90
11748;DHT22;5931;48.832;9.072;2023-03-23T06:47:56;13.70;99.90
11748;DHT22;5931;48.832;9.072;2023-03-23T06:50:22;13.90;99.90
11748;DHT22;5931;48.832;9.072;2023-03-23T06:52:49;14.10;99.90
11748;DHT22;5931;48.832;9.072;2023-03-23T06:55:16;14.30;99.90
11748;DHT22;5931;48.832;9.072;2023-03-23T06:57:43;14.40;99.90
11748;DHT22;5931;48.832;9.072;2023-03-23T07:00:10;14.50;99.90
11748;DHT22;5931;48.832;9.072;2023-03-23T07:02:39;14.50;99.90
11748;DHT22;5931;48.832;9.072;2023-03-23T07:05:07;14.40;99.90
11748;DHT22;5931;48.832;9.072;2023-03-23T07:07:35;14.40;99.90
11748;DHT22;5931;48.832;9.072;2023-03-23T07:10:17;14.40;99.90
11748;DHT22;5931;48.832;9.072;2023-03-23T07:12:44;14.40;99.90
11748;DHT22;5931;48.832;9.072;2023-03-23T07:15:10;14.30;99.90
11748;DHT22;5931;48.832;9.072;2023-03-23T07:17:39;14.20;99.90
11748;DHT22;5931;48.832;9.072;2023-03-23T07:20:13;14.20;99.90
11748;DHT22;5931;48.832;9.072;2023-03-23T07:22:40;14.20;99.90
11748;DHT22;5931;48.832;9.072;2023-03-23T07:25:17;14.20;99.90
11748;DHT22;5931;48.832;9.072;2023-03-23T07:27:52;14.20;99.90
11748;DHT22;5931;48.832;9.072;2023-03-23T07:30:17;14.20;99.90
11748;DHT22;5931;48.832;9.072;2023-03-23T07:32:43;14.30;99.90
11748;DHT22;5931;48.832;9.072;2023-03-23T07:35:09;14.40;99.90
11748;DHT22;5931;48.832;9.072;2023-03-23T07:38:11;14.50;99.90
11748;DHT22;5931;48.832;9.072;2023-03-23T07:40:37;14.50;99.90
11748;DHT22;5931;48.832;9.072;2023-03-23T07:43:10;14.50;99.90
11748;DHT22;5931;48.832;9.072;2023-03-23T07:45:58;14.70;99.90
11748;DHT22;5931;48.832;9.072;2023-03-23T07:48:32;15.00;99.90
11748;DHT22;5931;48.832;9.072;2023-03-23T07:50:59;15.20;99.90
11748;DHT22;5931;48.832;9.072;2023-03-23T07:53:27;15.50;99.90
11748;DHT22;5931;48.832;9.072;2023-03-23T07:56:02;15.80;99.90
11748;DHT22;5931;48.832;9.072;2023-03-23T07:58:49;16.00;99.90
11748;DHT22;5931;48.832;9.072;2023-03-23T08:01:15;16.20;99.90
11748;DHT22;5931;48.832;9.072;2023-03-23T08:03:47;16.10;99.90
11748;DHT22;5931;48.832;9.072;2023-03-23T08:06:34;16.10;99.90
11748;DHT22;5931;48.832;9.072;2023-03-23T08:09:23;16.10;99.90
11748;DHT22;5931;48.832;9.072;2023-03-23T08:12:07;15.90;99.90
11748;DHT22;5931;48.832;9.072;2023-03-23T08:14:50;15.80;99.90
11748;DHT22;5931;48.832;9.072;2023-03-23T08:17:39;16.00;99.90
11748;DHT22;5931;48.832;9.072;2023-03-23T08:20:18;15.90;99.90
11748;DHT22;5931;48.832;9.072;2023-03-23T08:23:06;16.20;99.90
11748;DHT22;5931;48.832;9.072;2023-03-23T08:25:59;16.30;99.90
11748;DHT22;5931;48.832;9.072;2023-03-23T08:28:46;16.50;99.90
11748;DHT22;5931;48.832;9.072;2023-03-23T08:31:49;16.50;99.90
11748;DHT22;5931;48.832;9.072;2023-03-23T08:34:30;16.40;99.90
11748;DHT22;5931;48.832;9.072;2023-03-23T08:37:21;16.50;99.90
11748;DHT22;5931;48.832;9.072;2023-03-23T08:39:55;16.50;99.90
11748;DHT22;5931;48.832;9.072;2023-03-23T08:42:40;16.60;99.90
11748;DHT22;5931;48.832;9.072;2023-03-23T08:45:29;16.70;99.90
11748;DHT22;5931;48.832;9.072;2023-03-23T08:48:00;16.80;99.90
11748;DHT22;5931;48.832;9.072;2023-03-23T08:50:42;16.80;99.90
11748;DHT22;5931;48.832;9.072;2023-03-23T08:53:42;16.50;99.90
11748;DHT22;5931;48.832;9.072;2023-03-23T08:56:32;16.20;99.90
11748;DHT22;5931;48.832;9.072;2023-03-23T08:59:16;16.10;99.90
11748;DHT22;5931;48.832;9.072;2023-03-23T09:01:55;16.10;99.90
11748;DHT22;5931;48.832;9.072;2023-03-23T09:04:42;16.00;99.90
11748;DHT22;5931;48.832;9.072;2023-03-23T09:07:23;16.00;99.90
11748;DHT22;5931;48.832;9.072;2023-03-23T09:09:49;15.90;99.90
11748;DHT22;5931;48.832;9.072;2023-03-23T09:12:14;15.90;99.90
11748;DHT22;5931;48.832;9.072;2023-03-23T09:14:41;16.00;99.90
11748;DHT22;5931;48.832;9.072;2023-03-23T09:17:06;16.00;99.90
11748;DHT22;5931;48.832;9.072;2023-03-23T09:19:33;16.20;99.90
11748;DHT22;5931;48.832;9.072;2023-03-23T09:21:59;16.30;99.90
11748;DHT22;5931;48.832;9.072;2023-03-23T09:24:26;16.30;99.90
11748;DHT22;5931;48.832;9.072;2023-03-23T09:26:52;16.30;99.90
11748;DHT22;5931;48.832;9.072;2023-03-23T09:29:18;16.50;99.90
11748;DHT22;5931;48.832;9.072;2023-03-23T09:31:44;16.60;99.90
11748;DHT22;5931;48.832;9.072;2023-03-23T09:34:12;16.60;99.90
11748;DHT22;5931;48.832;9.072;2023-03-23T09:36:38;16.50;99.90
11748;DHT22;5931;48.832;9.072;2023-03-23T09:39:05;16.40;99.90
11748;DHT22;5931;48.832;9.072;2023-03-23T09:42:04;16.50;99.90
11748;DHT22;5931;48.832;9.072;2023-03-23T09:50:00;17.20;99.90
11748;DHT22;5931;48.832;9.072;2023-03-23T09:52:40;17.60;99.90
11748;DHT22;5931;48.832;9.072;2023-03-23T09:55:11;17.80;99.90
11748;DHT22;5931;48.832;9.072;2023-03-23T09:57:53;18.00;99.90
11748;DHT22;5931;48.832;9.072;2023-03-23T10:00:31;18.20;99.90
11748;DHT22;5931;48.832;9.072;2023-03-23T10:03:17;17.90;99.90
11748;DHT22;5931;48.832;9.072;2023-03-23T10:05:52;17.60;99.90
11748;DHT22;5931;48.832;9.072;2023-03-23T10:08:27;17.90;99.90
11748;DHT22;5931;48.832;9.072;2023-03-23T10:14:15;18.30;99.90
11748;DHT22;5931;48.832;9.072;2023-03-23T10:17:13;18.20;99.90
11748;DHT22;5931;48.832;9.072;2023-03-23T10:19:47;18.20;99.90
11748;DHT22;5931;48.832;9.072;2023-03-23T10:22:17;18.00;99.90
11748;DHT22;5931;48.832;9.072;2023-03-23T10:24:50;18.10;99.90
11748;DHT22;5931;48.832;9.072;2023-03-23T10:27:33;18.20;99.90
11748;DHT22;5931;48.832;9.072;2023-03-23T10:32:50;18.60;99.90
11748;DHT22;5931;48.832;9.072;2023-03-23T10:35:23;18.80;99.90
11748;DHT22;5931;48.832;9.072;2023-03-23T10:37:56;18.90;99.90
11748;DHT22;5931;48.832;9.072;2023-03-23T10:40:28;18.80;99.90
11748;DHT22;5931;48.832;9.072;2023-03-23T10:42:56;18.50;99.90
11748;DHT22;5931;48.832;9.072;2023-03-23T10:45:29;18.20;99.90
11748;DHT22;5931;48.832;9.072;2023-03-23T10:48:13;18.30;99.90
11748;DHT22;5931;48.832;9.072;2023-03-23T10:50:41;18.10;99.90
11748;DHT22;5931;48.832;9.072;2023-03-23T10:53:22;18.10;99.90
11748;DHT22;5931;48.832;9.072;2023-03-23T10:55:49;17.60;99.90
11748;DHT22;5931;48.832;9.072;2023-03-23T10:58:29;18.10;99.90
11748;DHT22;5931;48.832;9.072;2023-03-23T11:00:58;18.50;99.90
11748;DHT22;5931;48.832;9.072;2023-03-23T11:03:40;18.90;99.90
11748;DHT22;5931;48.832;9.072;2023-03-23T11:06:30;19.30;99.90
11748;DHT22;5931;48.832;9.072;2023-03-23T11:09:18;19.00;99.90
11748;DHT22;5931;48.832;9.072;2023-03-23T11:11:50;19.10;99.90
11748;DHT22;5931;48.832;9.072;2023-03-23T11:14:36;19.00;99.90
11748;DHT22;5931;48.832;9.072;2023-03-23T11:17:20;18.60;99.90
11748;DHT22;5931;48.832;9.072;2023-03-23T11:19:46;18.50;99.90
11748;DHT22;5931;48.832;9.072;2023-03-23T11:22:29;18.50;99.90
11748;DHT22;5931;48.832;9.072;2023-03-23T11:25:00;18.70;99.90
11748;DHT22;5931;48.832;9.072;2023-03-23T11:27:27;18.50;99.90
11748;DHT22;5931;48.832;9.072;2023-03-23T11:29:56;18.50;99.90
11748;DHT22;5931;48.832;9.072;2023-03-23T11:32:25;18.80;99.90
11748;DHT22;5931;48.832;9.072;2023-03-23T11:35:00;18.70;99.90
11748;DHT22;5931;48.832;9.072;2023-03-23T11:37:54;19.00;99.90
11748;DHT22;5931;48.832;9.072;2023-03-23T11:40:27;18.90;99.90
11748;DHT22;5931;48.832;9.072;2023-03-23T11:43:12;18.90;99.90
11748;DHT22;5931;48.832;9.072;2023-03-23T11:45:41;19.00;99.90
11748;DHT22;5931;48.832;9.072;2023-03-23T11:48:26;18.80;99.90
11748;DHT22;5931;48.832;9.072;2023-03-23T11:51:30;19.00;99.90
11748;DHT22;5931;48.832;9.072;2023-03-23T11:54:15;19.20;99.90
11748;DHT22;5931;48.832;9.072;2023-03-23T11:56:44;19.70;99.90
11748;DHT22;5931;48.832;9.072;2023-03-23T11:59:27;19.70;99.90
11748;DHT22;5931;48.832;9.072;2023-03-23T12:02:26;19.80;99.90
11748;DHT22;5931;48.832;9.072;2023-03-23T12:05:32;19.80;99.90
11748;DHT22;5931;48.832;9.072;2023-03-23T12:14:20;19.40;99.90
11748;DHT22;5931;48.832;9.072;2023-03-23T12:28:11;19.40;99.90
11748;DHT22;5931;48.832;9.072;2023-03-23T12:31:15;19.50;99.90
11748;DHT22;5931;48.832;9.072;2023-03-23T12:33:59;19.60;99.90
11748;DHT22;5931;48.832;9.072;2023-03-23T12:36:46;19.60;99.90
11748;DHT22;5931;48.832;9.072;2023-03-23T12:42:37;20.30;99.90
11748;DHT22;5931;48.832;9.072;2023-03-23T12:45:19;20.20;99.90
11748;DHT22;5931;48.832;9.072;2023-03-23T12:48:15;19.40;99.90
11748;DHT22;5931;48.832;9.072;2023-03-23T12:53:36;19.30;99.90
11748;DHT22;5931;48.832;9.072;2023-03-23T12:56:10;19.50;99.90
11748;DHT22;5931;48.832;9.072;2023-03-23T12:58:42;19.10;99.90
11748;DHT22;5931;48.832;9.072;2023-03-23T13:04:05;18.90;99.90
11748;DHT22;5931;48.832;9.072;2023-03-23T13:06:39;19.20;99.90
11748;DHT22;5931;48.832;9.072;2023-03-23T13:09:11;19.40;99.90
11748;DHT22;5931;48.832;9.072;2023-03-23T13:11:39;19.40;99.90
11748;DHT22;5931;48.832;9.072;2023-03-23T13:14:24;19.80;99.90
11748;DHT22;5931;48.832;9.072;2023-03-23T13:17:03;19.70;99.90
11748;DHT22;5931;48.832;9.072;2023-03-23T13:22:46;20.10;99.90
11748;DHT22;5931;48.832;9.072;2023-03-23T13:28:02;20.10;99.90
11748;DHT22;5931;48.832;9.072;2023-03-23T13:30:29;20.10;99.90
11748;DHT22;5931;48.832;9.072;2023-03-23T13:33:05;20.30;99.90
11748;DHT22;5931;48.832;9.072;2023-03-23T13:35:39;20.30;99.90
11748;DHT22;5931;48.832;9.072;2023-03-23T13:38:17;20.30;99.90
11748;DHT22;5931;48.832;9.072;2023-03-23T13:40:44;20.30;99.90
11748;DHT22;5931;48.832;9.072;2023-03-23T13:43:11;19.90;99.90
11748;DHT22;5931;48.832;9.072;2023-03-23T13:45:46;20.10;99.90
11748;DHT22;5931;48.832;9.072;2023-03-23T13:53:31;20.10;99.90
11748;DHT22;5931;48.832;9.072;2023-03-23T13:58:48;19.70;99.90
11748;DHT22;5931;48.832;9.072;2023-03-23T14:01:18;19.60;99.90
11748;DHT22;5931;48.832;9.072;2023-03-23T14:03:54;19.70;99.90
11748;DHT22;5931;48.832;9.072;2023-03-23T14:06:22;19.60;99.90
11748;DHT22;5931;48.832;9.072;2023-03-23T14:09:09;19.50;99.90
11748;DHT22;5931;48.832;9.072;2023-03-23T14:11:56;19.40;99.90
11748;DHT22;5931;48.832;9.072;2023-03-23T14:14:32;19.60;99.90
11748;DHT22;5931;48.832;9.072;2023-03-23T14:17:14;19.50;99.90
11748;DHT22;5931;48.832;9.072;2023-03-23T14:19:42;19.40;99.90
11748;DHT22;5931;48.832;9.072;2023-03-23T14:22:35;19.50;99.90
11748;DHT22;5931;48.832;9.072;2023-03-23T14:25:17;19.60;99.90
11748;DHT22;5931;48.832;9.072;2023-03-23T14:27:44;19.80;99.90
11748;DHT22;5931;48.832;9.072;2023-03-23T14:30:15;19.90;99.90
11748;DHT22;5931;48.832;9.072;2023-03-23T14:32:42;19.80;99.90
11748;DHT22;5931;48.832;9.072;2023-03-23T14:35:27;19.90;99.90
11748;DHT22;5931;48.832;9.072;2023-03-23T14:37:54;20.00;99.90
11748;DHT22;5931;48.832;9.072;2023-03-23T14:40:20;20.00;99.90
11748;DHT22;5931;48.832;9.072;2023-03-23T14:42:46;19.90;99.90
11748;DHT22;5931;48.832;9.072;2023-03-23T14:45:16;19.50;99.90
11748;DHT22;5931;48.832;9.072;2023-03-23T14:47:56;19.40;99.90
11748;DHT22;5931;48.832;9.072;2023-03-23T14:52:51;19.30;99.90
11748;DHT22;5931;48.832;9.072;2023-03-23T14:55:20;19.10;99.90
11748;DHT22;5931;48.832;9.072;2023-03-23T14:57:47;19.00;99.90
11748;DHT22;5931;48.832;9.072;2023-03-23T15:00:14;18.80;99.90
11748;DHT22;5931;48.832;9.072;2023-03-23T15:02:41;18.80;99.90
11748;DHT22;5931;48.832;9.072;2023-03-23T15:05:14;19.20;99.90
11748;DHT22;5931;48.832;9.072;2023-03-23T15:07:43;19.10;99.90
11748;DHT22;5931;48.832;9.072;2023-03-23T15:10:14;19.20;99.90
11748;DHT22;5931;48.832;9.072;2023-03-23T15:12:44;19.00;99.90
11748;DHT22;5931;48.832;9.072;2023-03-23T15:15:22;18.80;99.90
11748;DHT22;5931;48.832;9.072;2023-03-23T15:17:49;18.60;99.90
11748;DHT22;5931;48.832;9.072;2023-03-23T15:20:24;18.40;99.90
11748;DHT22;5931;48.832;9.072;2023-03-23T15:22:50;18.30;99.90
11748;DHT22;5931;48.832;9.072;2023-03-23T15:25:32;18.20;99.90
11748;DHT22;5931;48.832;9.072;2023-03-23T15:28:17;18.10;99.90
11748;DHT22;5931;48.832;9.072;2023-03-23T15:30:51;18.10;99.90
11748;DHT22;5931;48.832;9.072;2023-03-23T15:33:18;18.00;99.90
11748;DHT22;5931;48.832;9.072;2023-03-23T15:35:49;17.80;99.90
11748;DHT22;5931;48.832;9.072;2023-03-23T15:40:54;17.70;99.90
11748;DHT22;5931;48.832;9.072;2023-03-23T15:43:31;17.70;99.90
11748;DHT22;5931;48.832;9.072;2023-03-23T15:51:17;17.90;99.90
11748;DHT22;5931;48.832;9.072;2023-03-23T15:53:44;17.90;99.90
11748;DHT22;5931;48.832;9.072;2023-03-23T15:56:11;17.90;99.90
11748;DHT22;5931;48.832;9.072;2023-03-23T15:58:38;17.90;99.80
11748;DHT22;5931;48.832;9.072;2023-03-23T16:01:11;17.80;99.90
11748;DHT22;5931;48.832;9.072;2023-03-23T16:03:38;17.80;99.80
11748;DHT22;5931;48.832;9.072;2023-03-23T16:06:08;17.60;99.60
11748;DHT22;5931;48.832;9.072;2023-03-23T16:08:34;17.50;99.90
11748;DHT22;5931;48.832;9.072;2023-03-23T16:11:09;17.40;99.80
11748;DHT22;5931;48.832;9.072;2023-03-23T16:13:35;17.40;99.90
11748;DHT22;5931;48.832;9.072;2023-03-23T16:16:01;17.30;99.70
11748;DHT22;5931;48.832;9.072;2023-03-23T16:18:29;17.20;99.90
11748;DHT22;5931;48.832;9.072;2023-03-23T16:20:56;17.20;99.90
11748;DHT22;5931;48.832;9.072;2023-03-23T16:23:22;17.10;99.90
11748;DHT22;5931;48.832;9.072;2023-03-23T16:25:48;17.10;99.90
11748;DHT22;5931;48.832;9.072;2023-03-23T16:28:14;17.10;99.90
11748;DHT22;5931;48.832;9.072;2023-03-23T16:30:42;16.90;99.90
11748;DHT22;5931;48.832;9.072;2023-03-23T16:33:07;16.80;99.90
11748;DHT22;5931;48.832;9.072;2023-03-23T16:35:34;16.70;99.90
11748;DHT22;5931;48.832;9.072;2023-03-23T16:38:00;16.60;99.90
11748;DHT22;5931;48.832;9.072;2023-03-23T16:40:25;16.50;99.90
11748;DHT22;5931;48.832;9.072;2023-03-23T16:42:52;16.50;99.90
11748;DHT22;5931;48.832;9.072;2023-03-23T16:45:18;16.60;99.90
11748;DHT22;5931;48.832;9.072;2023-03-23T16:47:44;16.50;99.90
11748;DHT22;5931;48.832;9.072;2023-03-23T16:50:12;16.50;99.90
11748;DHT22;5931;48.832;9.072;2023-03-23T16:52:40;16.50;99.90
11748;DHT22;5931;48.832;9.072;2023-03-23T16:55:07;16.50;99.90
11748;DHT22;5931;48.832;9.072;2023-03-23T16:57:34;16.50;99.90
11748;DHT22;5931;48.832;9.072;2023-03-23T17:00:04;16.40;99.90
11748;DHT22;5931;48.832;9.072;2023-03-23T17:02:31;16.40;99.90
11748;DHT22;5931;48.832;9.072;2023-03-23T17:04:57;16.40;99.90
11748;DHT22;5931;48.832;9.072;2023-03-23T17:07:23;16.30;99.90
11748;DHT22;5931;48.832;9.072;2023-03-23T17:09:49;16.30;99.90
11748;DHT22;5931;48.832;9.072;2023-03-23T17:12:15;16.30;99.90
11748;DHT22;5931;48.832;9.072;2023-03-23T17:14:41;16.30;99.90
11748;DHT22;5931;48.832;9.072;2023-03-23T17:17:07;16.20;99.90
11748;DHT22;5931;48.832;9.072;2023-03-23T17:19:32;16.20;99.90
11748;DHT22;5931;48.832;9.072;2023-03-23T17:21:58;16.20;99.90
11748;DHT22;5931;48.832;9.072;2023-03-23T17:24:24;16.10;99.90
11748;DHT22;5931;48.832;9.072;2023-03-23T17:26:52;16.10;99.90
11748;DHT22;5931;48.832;9.072;2023-03-23T17:29:17;16.00;99.90
11748;DHT22;5931;48.832;9.072;2023-03-23T17:31:43;16.00;99.90
11748;DHT22;5931;48.832;9.072;2023-03-23T17:34:09;16.00;99.90
11748;DHT22;5931;48.832;9.072;2023-03-23T17:36:35;16.00;99.90
11748;DHT22;5931;48.832;9.072;2023-03-23T17:39:00;15.90;99.90
11748;DHT22;5931;48.832;9.072;2023-03-23T17:41:26;15.90;99.90